sensor_id;sensor_type;location;lat;lon;timestamp;temperature;humidity
25951;DHT22;13748;52.240;6.002;2022-12-01T00:01:18;6.80;99.90
25951;DHT22;13748;52.240;6.002;2022-12-01T00:03:45;6.90;99.90
25951;DHT22;13748;52.240;6.002;2022-12-01T00:06:18;6.90;99.90
25951;DHT22;13748;52.240;6.002;2022-12-01T00:08:47;6.90;99.90
25951;DHT22;13748;52.240;6.002;2022-12-01T00:11:34;6.90;99.90
25951;DHT22;13748;52.240;6.002;2022-12-01T00:14:02;6.90;99.90
25951;DHT22;13748;52.240;6.002;2022-12-01T00:16:29;6.90;99.90
25951;DHT22;13748;52.240;6.002;2022-12-01T00:18:56;6.90;99.90
25951;DHT22;13748;52.240;6.002;2022-12-01T00:21:24;6.90;99.90
25951;DHT22;13748;52.240;6.002;2022-12-01T00:23:54;6.90;99.90
25951;DHT22;13748;52.240;6.002;2022-12-01T00:26:22;6.80;99.90
25951;DHT22;13748;52.240;6.002;2022-12-01T00:28:56;6.90;99.90
25951;DHT22;13748;52.240;6.002;2022-12-01T00:31:24;6.90;99.90
25951;DHT22;13748;52.240;6.002;2022-12-01T00:33:52;6.80;99.90
25951;DHT22;13748;52.240;6.002;2022-12-01T00:36:19;6.80;99.90
25951;DHT22;13748;52.240;6.002;2022-12-01T00:38:52;6.80;99.90
25951;DHT22;13748;52.240;6.002;2022-12-01T00:41:20;6.80;99.90
25951;DHT22;13748;52.240;6.002;2022-12-01T00:43:47;6.80;99.90
25951;DHT22;13748;52.240;6.002;2022-12-01T00:46:14;6.80;99.90
25951;DHT22;13748;52.240;6.002;2022-12-01T00:48:43;6.80;99.90
25951;DHT22;13748;52.240;6.002;2022-12-01T00:51:10;6.90;99.90
25951;DHT22;13748;52.240;6.002;2022-12-01T00:53:37;6.80;99.90
25951;DHT22;13748;52.240;6.002;2022-12-01T00:56:06;6.80;99.90
25951;DHT22;13748;52.240;6.002;2022-12-01T00:58:33;6.80;99.90
25951;DHT22;13748;52.240;6.002;2022-12-01T01:01:00;6.80;99.90
25951;DHT22;13748;52.240;6.002;2022-12-01T01:03:28;6.80;99.90
25951;DHT22;13748;52.240;6.002;2022-12-01T01:05:56;6.80;99.90
25951;DHT22;13748;52.240;6.002;2022-12-01T01:08:28;6.80;99.90
25951;DHT22;13748;52.240;6.002;2022-12-01T01:10:58;6.80;99.90
25951;DHT22;13748;52.240;6.002;2022-12-01T01:13:26;6.80;99.90
25951;DHT22;13748;52.240;6.002;2022-12-01T01:16:08;6.80;99.90
25951;DHT22;13748;52.240;6.002;2022-12-01T01:18:36;6.80;99.90
25951;DHT22;13748;52.240;6.002;2022-12-01T01:21:10;6.80;99.90
25951;DHT22;13748;52.240;6.002;2022-12-01T01:23:37;6.80;99.90
25951;DHT22;13748;52.240;6.002;2022-12-01T01:26:17;6.80;99.90
25951;DHT22;13748;52.240;6.002;2022-12-01T01:28:45;6.80;99.90
25951;DHT22;13748;52.240;6.002;2022-12-01T01:31:15;6.80;99.90
25951;DHT22;13748;52.240;6.002;2022-12-01T01:33:43;6.80;99.90
25951;DHT22;13748;52.240;6.002;2022-12-01T01:36:10;6.80;99.90
25951;DHT22;13748;52.240;6.002;2022-12-01T01:38:38;6.80;99.90
25951;DHT22;13748;52.240;6.002;2022-12-01T01:41:05;6.80;99.90
25951;DHT22;13748;52.240;6.002;2022-12-01T01:43:46;6.80;99.90
25951;DHT22;13748;52.240;6.002;2022-12-01T01:46:33;6.90;99.90
25951;DHT22;13748;52.240;6.002;2022-12-01T01:49:04;6.90;99.90
25951;DHT22;13748;52.240;6.002;2022-12-01T01:54:10;6.90;99.90
25951;DHT22;13748;52.240;6.002;2022-12-01T01:56:43;6.90;99.90
25951;DHT22;13748;52.240;6.002;2022-12-01T01:59:12;6.80;99.90
25951;DHT22;13748;52.240;6.002;2022-12-01T02:01:40;6.90;99.90
25951;DHT22;13748;52.240;6.002;2022-12-01T02:04:07;6.80;99.90
25951;DHT22;13748;52.240;6.002;2022-12-01T02:06:34;6.80;99.90
25951;DHT22;13748;52.240;6.002;2022-12-01T02:09:01;6.80;99.90
25951;DHT22;13748;52.240;6.002;2022-12-01T02:14:39;6.80;99.90
25951;DHT22;13748;52.240;6.002;2022-12-01T02:17:28;6.80;99.90
25951;DHT22;13748;52.240;6.002;2022-12-01T02:31:32;6.80;99.90
25951;DHT22;13748;52.240;6.002;2022-12-01T02:34:19;6.80;99.90
25951;DHT22;13748;52.240;6.002;2022-12-01T02:36:53;6.70;99.90
25951;DHT22;13748;52.240;6.002;2022-12-01T02:39:30;6.70;99.90
25951;DHT22;13748;52.240;6.002;2022-12-01T02:42:10;6.70;99.90
25951;DHT22;13748;52.240;6.002;2022-12-01T02:45:02;6.80;99.90
25951;DHT22;13748;52.240;6.002;2022-12-01T02:47:32;6.80;99.90
25951;DHT22;13748;52.240;6.002;2022-12-01T02:50:00;6.80;99.90
25951;DHT22;13748;52.240;6.002;2022-12-01T02:52:28;6.80;99.90
25951;DHT22;13748;52.240;6.002;2022-12-01T02:54:56;6.80;99.90
25951;DHT22;13748;52.240;6.002;2022-12-01T02:57:22;6.80;99.90
25951;DHT22;13748;52.240;6.002;2022-12-01T02:59:52;6.70;99.90
25951;DHT22;13748;52.240;6.002;2022-12-01T03:06:09;6.80;99.90
25951;DHT22;13748;52.240;6.002;2022-12-01T03:08:51;6.70;99.90
25951;DHT22;13748;52.240;6.002;2022-12-01T03:11:33;6.70;99.90
25951;DHT22;13748;52.240;6.002;2022-12-01T03:14:08;6.70;99.90
25951;DHT22;13748;52.240;6.002;2022-12-01T03:19:38;6.70;99.90
25951;DHT22;13748;52.240;6.002;2022-12-01T03:22:11;6.70;99.90
25951;DHT22;13748;52.240;6.002;2022-12-01T03:24:41;6.60;99.90
25951;DHT22;13748;52.240;6.002;2022-12-01T03:27:10;6.60;99.90
25951;DHT22;13748;52.240;6.002;2022-12-01T03:29:40;6.60;99.90
25951;DHT22;13748;52.240;6.002;2022-12-01T03:32:23;6.70;99.90
25951;DHT22;13748;52.240;6.002;2022-12-01T03:37:28;6.70;99.90
25951;DHT22;13748;52.240;6.002;2022-12-01T03:39:58;6.60;99.90
25951;DHT22;13748;52.240;6.002;2022-12-01T03:42:37;6.60;99.90
25951;DHT22;13748;52.240;6.002;2022-12-01T03:45:10;6.60;99.90
25951;DHT22;13748;52.240;6.002;2022-12-01T03:47:40;6.60;99.90
25951;DHT22;13748;52.240;6.002;2022-12-01T03:50:09;6.70;99.90
25951;DHT22;13748;52.240;6.002;2022-12-01T03:55:36;6.60;99.90
25951;DHT22;13748;52.240;6.002;2022-12-01T03:58:08;6.70;99.90
25951;DHT22;13748;52.240;6.002;2022-12-01T04:00:36;6.70;99.90
25951;DHT22;13748;52.240;6.002;2022-12-01T04:03:04;6.70;99.90
25951;DHT22;13748;52.240;6.002;2022-12-01T04:05:32;6.70;99.90
25951;DHT22;13748;52.240;6.002;2022-12-01T04:08:00;6.80;99.90
25951;DHT22;13748;52.240;6.002;2022-12-01T04:10:27;6.70;99.90
25951;DHT22;13748;52.240;6.002;2022-12-01T04:12:53;6.70;99.90
25951;DHT22;13748;52.240;6.002;2022-12-01T04:15:25;6.70;99.90
25951;DHT22;13748;52.240;6.002;2022-12-01T04:17:53;6.70;99.90
25951;DHT22;13748;52.240;6.002;2022-12-01T04:20:20;6.60;99.90
25951;DHT22;13748;52.240;6.002;2022-12-01T04:22:47;6.70;99.90
25951;DHT22;13748;52.240;6.002;2022-12-01T04:25:16;6.70;99.90
25951;DHT22;13748;52.240;6.002;2022-12-01T04:27:43;6.70;99.90
25951;DHT22;13748;52.240;6.002;2022-12-01T04:30:10;6.70;99.90
25951;DHT22;13748;52.240;6.002;2022-12-01T04:32:42;6.70;99.90
25951;DHT22;13748;52.240;6.002;2022-12-01T04:35:10;6.70;99.90
25951;DHT22;13748;52.240;6.002;2022-12-01T04:37:38;6.70;99.90
25951;DHT22;13748;52.240;6.002;2022-12-01T04:40:05;6.70;99.90
25951;DHT22;13748;52.240;6.002;2022-12-01T04:42:32;6.70;99.90
25951;DHT22;13748;52.240;6.002;2022-12-01T04:44:59;6.70;99.90
25951;DHT22;13748;52.240;6.002;2022-12-01T04:47:26;6.70;99.90
25951;DHT22;13748;52.240;6.002;2022-12-01T04:49:52;6.70;99.90
25951;DHT22;13748;52.240;6.002;2022-12-01T04:52:20;6.70;99.90
25951;DHT22;13748;52.240;6.002;2022-12-01T04:54:46;6.70;99.90
25951;DHT22;13748;52.240;6.002;2022-12-01T04:57:13;6.70;99.90
25951;DHT22;13748;52.240;6.002;2022-12-01T04:59:40;6.70;99.90
25951;DHT22;13748;52.240;6.002;2022-12-01T05:02:06;6.70;99.90
25951;DHT22;13748;52.240;6.002;2022-12-01T05:04:33;6.70;99.90
25951;DHT22;13748;52.240;6.002;2022-12-01T05:07:04;6.70;99.90
25951;DHT22;13748;52.240;6.002;2022-12-01T05:09:30;6.70;99.90
25951;DHT22;13748;52.240;6.002;2022-12-01T05:11:57;6.70;99.90
25951;DHT22;13748;52.240;6.002;2022-12-01T05:14:24;6.70;99.90
25951;DHT22;13748;52.240;6.002;2022-12-01T05:16:51;6.70;99.90
25951;DHT22;13748;52.240;6.002;2022-12-01T05:19:17;6.70;99.90
25951;DHT22;13748;52.240;6.002;2022-12-01T05:22:03;6.70;99.90
25951;DHT22;13748;52.240;6.002;2022-12-01T05:24:30;6.70;99.90
25951;DHT22;13748;52.240;6.002;2022-12-01T05:26:57;6.70;99.90
25951;DHT22;13748;52.240;6.002;2022-12-01T05:29:23;6.70;99.90
25951;DHT22;13748;52.240;6.002;2022-12-01T05:31:50;6.70;99.90
25951;DHT22;13748;52.240;6.002;2022-12-01T05:34:17;6.70;99.90
25951;DHT22;13748;52.240;6.002;2022-12-01T05:36:44;6.70;99.90
25951;DHT22;13748;52.240;6.002;2022-12-01T05:39:10;6.70;99.90
25951;DHT22;13748;52.240;6.002;2022-12-01T05:41:37;6.70;99.90
25951;DHT22;13748;52.240;6.002;2022-12-01T05:44:04;6.70;99.90
25951;DHT22;13748;52.240;6.002;2022-12-01T05:46:34;6.70;99.90
25951;DHT22;13748;52.240;6.002;2022-12-01T05:49:04;6.70;99.90
25951;DHT22;13748;52.240;6.002;2022-12-01T05:51:31;6.70;99.90
25951;DHT22;13748;52.240;6.002;2022-12-01T05:53:58;6.70;99.90
25951;DHT22;13748;52.240;6.002;2022-12-01T05:56:25;6.70;99.90
25951;DHT22;13748;52.240;6.002;2022-12-01T05:58:52;6.70;99.90
25951;DHT22;13748;52.240;6.002;2022-12-01T06:01:19;6.70;99.90
25951;DHT22;13748;52.240;6.002;2022-12-01T06:03:46;6.70;99.90
25951;DHT22;13748;52.240;6.002;2022-12-01T06:06:13;6.70;99.90
25951;DHT22;13748;52.240;6.002;2022-12-01T06:08:39;6.70;99.90
25951;DHT22;13748;52.240;6.002;2022-12-01T06:11:07;6.70;99.90
25951;DHT22;13748;52.240;6.002;2022-12-01T06:13:34;6.70;99.90
25951;DHT22;13748;52.240;6.002;2022-12-01T06:16:03;6.70;99.90
25951;DHT22;13748;52.240;6.002;2022-12-01T06:18:33;6.70;99.90
25951;DHT22;13748;52.240;6.002;2022-12-01T06:21:00;6.70;99.90
25951;DHT22;13748;52.240;6.002;2022-12-01T06:23:27;6.70;99.90
25951;DHT22;13748;52.240;6.002;2022-12-01T06:25:57;6.70;99.90
25951;DHT22;13748;52.240;6.002;2022-12-01T06:28:27;6.70;99.90
25951;DHT22;13748;52.240;6.002;2022-12-01T06:30:54;6.70;99.90
25951;DHT22;13748;52.240;6.002;2022-12-01T06:33:28;6.70;99.90
25951;DHT22;13748;52.240;6.002;2022-12-01T06:36:00;6.70;99.90
25951;DHT22;13748;52.240;6.002;2022-12-01T06:38:32;6.70;99.90
25951;DHT22;13748;52.240;6.002;2022-12-01T06:40:59;6.70;99.90
25951;DHT22;13748;52.240;6.002;2022-12-01T06:43:27;6.70;99.90
25951;DHT22;13748;52.240;6.002;2022-12-01T06:45:55;6.70;99.90
25951;DHT22;13748;52.240;6.002;2022-12-01T06:48:27;6.70;99.90
25951;DHT22;13748;52.240;6.002;2022-12-01T06:50:58;6.70;99.90
25951;DHT22;13748;52.240;6.002;2022-12-01T06:53:25;6.70;99.90
25951;DHT22;13748;52.240;6.002;2022-12-01T06:56:02;6.70;99.90
25951;DHT22;13748;52.240;6.002;2022-12-01T06:58:30;6.70;99.90
25951;DHT22;13748;52.240;6.002;2022-12-01T07:00:57;6.60;99.90
25951;DHT22;13748;52.240;6.002;2022-12-01T07:03:25;6.70;99.90
25951;DHT22;13748;52.240;6.002;2022-12-01T07:05:59;6.70;99.90
25951;DHT22;13748;52.240;6.002;2022-12-01T07:08:28;6.70;99.90
25951;DHT22;13748;52.240;6.002;2022-12-01T07:10:58;6.70;99.90
25951;DHT22;13748;52.240;6.002;2022-12-01T07:13:26;6.70;99.90
25951;DHT22;13748;52.240;6.002;2022-12-01T07:15:58;6.60;99.90
25951;DHT22;13748;52.240;6.002;2022-12-01T07:18:25;6.60;99.90
25951;DHT22;13748;52.240;6.002;2022-12-01T07:20:52;6.60;99.90
25951;DHT22;13748;52.240;6.002;2022-12-01T07:23:19;6.60;99.90
25951;DHT22;13748;52.240;6.002;2022-12-01T07:25:46;6.60;99.90
25951;DHT22;13748;52.240;6.002;2022-12-01T07:28:13;6.60;99.90
25951;DHT22;13748;52.240;6.002;2022-12-01T07:30:40;6.60;99.90
25951;DHT22;13748;52.240;6.002;2022-12-01T07:33:07;6.60;99.90
25951;DHT22;13748;52.240;6.002;2022-12-01T07:35:33;6.60;99.90
25951;DHT22;13748;52.240;6.002;2022-12-01T07:38:00;6.60;99.90
25951;DHT22;13748;52.240;6.002;2022-12-01T07:40:27;6.60;99.90
25951;DHT22;13748;52.240;6.002;2022-12-01T07:42:54;6.60;99.90
25951;DHT22;13748;52.240;6.002;2022-12-01T07:45:20;6.60;99.90
25951;DHT22;13748;52.240;6.002;2022-12-01T07:47:47;6.60;99.90
25951;DHT22;13748;52.240;6.002;2022-12-01T07:50:17;6.60;99.90
25951;DHT22;13748;52.240;6.002;2022-12-01T07:52:47;6.60;99.90
25951;DHT22;13748;52.240;6.002;2022-12-01T07:55:14;6.60;99.90
25951;DHT22;13748;52.240;6.002;2022-12-01T07:57:41;6.60;99.90
25951;DHT22;13748;52.240;6.002;2022-12-01T08:00:08;6.60;99.90
25951;DHT22;13748;52.240;6.002;2022-12-01T08:02:35;6.60;99.90
25951;DHT22;13748;52.240;6.002;2022-12-01T08:05:03;6.60;99.90
25951;DHT22;13748;52.240;6.002;2022-12-01T08:07:30;6.50;99.90
25951;DHT22;13748;52.240;6.002;2022-12-01T08:09:57;6.60;99.90
25951;DHT22;13748;52.240;6.002;2022-12-01T08:12:23;6.70;99.90
25951;DHT22;13748;52.240;6.002;2022-12-01T08:14:57;6.70;99.90
25951;DHT22;13748;52.240;6.002;2022-12-01T08:17:24;6.70;99.90
25951;DHT22;13748;52.240;6.002;2022-12-01T08:19:51;6.70;99.90
25951;DHT22;13748;52.240;6.002;2022-12-01T08:22:18;6.70;99.90
25951;DHT22;13748;52.240;6.002;2022-12-01T08:24:45;6.70;99.90
25951;DHT22;13748;52.240;6.002;2022-12-01T08:27:14;6.80;99.90
25951;DHT22;13748;52.240;6.002;2022-12-01T08:29:40;6.80;99.90
25951;DHT22;13748;52.240;6.002;2022-12-01T08:32:07;6.80;99.90
25951;DHT22;13748;52.240;6.002;2022-12-01T08:34:34;6.80;99.90
25951;DHT22;13748;52.240;6.002;2022-12-01T08:37:03;6.80;99.90
25951;DHT22;13748;52.240;6.002;2022-12-01T08:39:31;6.80;99.90
25951;DHT22;13748;52.240;6.002;2022-12-01T08:41:58;6.80;99.90
25951;DHT22;13748;52.240;6.002;2022-12-01T08:44:25;6.90;99.90
25951;DHT22;13748;52.240;6.002;2022-12-01T08:46:52;6.90;99.90
25951;DHT22;13748;52.240;6.002;2022-12-01T08:49:20;6.90;99.90
25951;DHT22;13748;52.240;6.002;2022-12-01T08:51:48;7.00;99.90
25951;DHT22;13748;52.240;6.002;2022-12-01T08:54:14;6.90;99.90
25951;DHT22;13748;52.240;6.002;2022-12-01T08:56:43;7.00;99.90
25951;DHT22;13748;52.240;6.002;2022-12-01T08:59:10;7.00;99.90
25951;DHT22;13748;52.240;6.002;2022-12-01T09:01:37;7.10;99.90
25951;DHT22;13748;52.240;6.002;2022-12-01T09:04:19;7.10;99.90
25951;DHT22;13748;52.240;6.002;2022-12-01T09:06:47;7.10;99.90
25951;DHT22;13748;52.240;6.002;2022-12-01T09:09:18;7.10;99.90
25951;DHT22;13748;52.240;6.002;2022-12-01T09:11:46;7.20;99.90
25951;DHT22;13748;52.240;6.002;2022-12-01T09:14:15;7.20;99.90
25951;DHT22;13748;52.240;6.002;2022-12-01T09:16:44;7.20;99.90
25951;DHT22;13748;52.240;6.002;2022-12-01T09:19:12;7.20;99.90
25951;DHT22;13748;52.240;6.002;2022-12-01T09:21:47;7.30;99.90
25951;DHT22;13748;52.240;6.002;2022-12-01T09:24:15;7.30;99.90
25951;DHT22;13748;52.240;6.002;2022-12-01T09:26:42;7.30;99.90
25951;DHT22;13748;52.240;6.002;2022-12-01T09:29:11;7.30;99.90
25951;DHT22;13748;52.240;6.002;2022-12-01T09:31:39;7.30;99.90
25951;DHT22;13748;52.240;6.002;2022-12-01T09:34:12;7.20;99.90
25951;DHT22;13748;52.240;6.002;2022-12-01T09:36:39;7.20;99.90
25951;DHT22;13748;52.240;6.002;2022-12-01T09:39:07;7.30;99.90
25951;DHT22;13748;52.240;6.002;2022-12-01T09:44:29;7.40;99.90
25951;DHT22;13748;52.240;6.002;2022-12-01T09:47:17;7.40;99.90
25951;DHT22;13748;52.240;6.002;2022-12-01T09:49:50;7.40;99.90
25951;DHT22;13748;52.240;6.002;2022-12-01T09:52:22;7.40;99.90
25951;DHT22;13748;52.240;6.002;2022-12-01T09:54:49;7.40;99.90
25951;DHT22;13748;52.240;6.002;2022-12-01T09:59:56;7.40;99.90
25951;DHT22;13748;52.240;6.002;2022-12-01T10:02:26;7.40;99.90
25951;DHT22;13748;52.240;6.002;2022-12-01T10:04:56;7.40;99.90
25951;DHT22;13748;52.240;6.002;2022-12-01T10:07:28;7.40;99.90
25951;DHT22;13748;52.240;6.002;2022-12-01T10:10:05;7.40;99.90
25951;DHT22;13748;52.240;6.002;2022-12-01T10:12:34;7.40;99.90
25951;DHT22;13748;52.240;6.002;2022-12-01T10:18:19;7.50;99.90
25951;DHT22;13748;52.240;6.002;2022-12-01T10:26:21;7.50;99.90
25951;DHT22;13748;52.240;6.002;2022-12-01T10:29:10;7.50;99.90
25951;DHT22;13748;52.240;6.002;2022-12-01T10:31:51;7.50;99.90
25951;DHT22;13748;52.240;6.002;2022-12-01T10:36:49;7.50;99.90
25951;DHT22;13748;52.240;6.002;2022-12-01T10:42:25;7.70;99.90
25951;DHT22;13748;52.240;6.002;2022-12-01T10:45:00;7.60;99.90
25951;DHT22;13748;52.240;6.002;2022-12-01T10:47:27;7.70;99.90
25951;DHT22;13748;52.240;6.002;2022-12-01T10:49:54;7.70;99.90
25951;DHT22;13748;52.240;6.002;2022-12-01T10:52:40;7.70;99.90
25951;DHT22;13748;52.240;6.002;2022-12-01T10:57:49;7.80;99.90
25951;DHT22;13748;52.240;6.002;2022-12-01T11:00:33;7.80;99.90
25951;DHT22;13748;52.240;6.002;2022-12-01T11:03:22;7.90;99.90
25951;DHT22;13748;52.240;6.002;2022-12-01T11:05:57;7.90;99.90
25951;DHT22;13748;52.240;6.002;2022-12-01T11:08:40;7.90;99.90
25951;DHT22;13748;52.240;6.002;2022-12-01T11:11:36;7.90;99.90
25951;DHT22;13748;52.240;6.002;2022-12-01T11:14:15;7.90;99.90
25951;DHT22;13748;52.240;6.002;2022-12-01T11:16:46;8.00;99.90
25951;DHT22;13748;52.240;6.002;2022-12-01T11:22:39;8.00;99.90
25951;DHT22;13748;52.240;6.002;2022-12-01T11:24:55;8.00;99.90
25951;DHT22;13748;52.240;6.002;2022-12-01T11:27:25;8.00;99.90
25951;DHT22;13748;52.240;6.002;2022-12-01T11:29:57;8.00;99.90
25951;DHT22;13748;52.240;6.002;2022-12-01T11:32:28;8.00;99.90
25951;DHT22;13748;52.240;6.002;2022-12-01T11:34:56;8.00;99.90
25951;DHT22;13748;52.240;6.002;2022-12-01T11:37:28;8.10;99.90
25951;DHT22;13748;52.240;6.002;2022-12-01T11:40:30;8.10;99.90
25951;DHT22;13748;52.240;6.002;2022-12-01T11:43:04;8.20;99.90
25951;DHT22;13748;52.240;6.002;2022-12-01T11:45:33;8.20;99.90
25951;DHT22;13748;52.240;6.002;2022-12-01T11:48:07;8.20;99.90
25951;DHT22;13748;52.240;6.002;2022-12-01T11:50:43;8.20;99.90
25951;DHT22;13748;52.240;6.002;2022-12-01T11:53:28;8.30;99.90
25951;DHT22;13748;52.240;6.002;2022-12-01T11:58:42;8.30;99.90
25951;DHT22;13748;52.240;6.002;2022-12-01T12:04:01;8.20;99.90
25951;DHT22;13748;52.240;6.002;2022-12-01T12:06:53;8.20;99.90
25951;DHT22;13748;52.240;6.002;2022-12-01T12:09:52;8.10;99.90
25951;DHT22;13748;52.240;6.002;2022-12-01T12:12:35;8.10;99.90
25951;DHT22;13748;52.240;6.002;2022-12-01T12:29:46;8.20;99.90
25951;DHT22;13748;52.240;6.002;2022-12-01T12:41:12;8.30;99.90
25951;DHT22;13748;52.240;6.002;2022-12-01T12:46:38;8.20;99.90
25951;DHT22;13748;52.240;6.002;2022-12-01T12:49:20;8.20;99.90
25951;DHT22;13748;52.240;6.002;2022-12-01T12:51:51;8.20;99.90
25951;DHT22;13748;52.240;6.002;2022-12-01T12:57:13;8.30;99.90
25951;DHT22;13748;52.240;6.002;2022-12-01T13:02:31;8.30;99.90
25951;DHT22;13748;52.240;6.002;2022-12-01T13:07:41;8.30;99.90
25951;DHT22;13748;52.240;6.002;2022-12-01T13:13:10;8.40;99.90
25951;DHT22;13748;52.240;6.002;2022-12-01T13:15:41;8.40;99.90
25951;DHT22;13748;52.240;6.002;2022-12-01T13:20:42;8.40;99.90
25951;DHT22;13748;52.240;6.002;2022-12-01T13:23:15;8.40;99.90
25951;DHT22;13748;52.240;6.002;2022-12-01T13:25:44;8.40;99.90
25951;DHT22;13748;52.240;6.002;2022-12-01T13:28:26;8.40;99.90
25951;DHT22;13748;52.240;6.002;2022-12-01T13:30:59;8.40;99.90
25951;DHT22;13748;52.240;6.002;2022-12-01T13:33:27;8.40;99.90
25951;DHT22;13748;52.240;6.002;2022-12-01T13:35:55;8.30;99.90
25951;DHT22;13748;52.240;6.002;2022-12-01T13:38:42;8.30;99.90
25951;DHT22;13748;52.240;6.002;2022-12-01T13:43:52;8.30;99.90
25951;DHT22;13748;52.240;6.002;2022-12-01T13:46:21;8.30;99.90
25951;DHT22;13748;52.240;6.002;2022-12-01T13:48:52;8.30;99.90
25951;DHT22;13748;52.240;6.002;2022-12-01T13:51:19;8.30;99.90
25951;DHT22;13748;52.240;6.002;2022-12-01T13:56:38;8.20;99.90
25951;DHT22;13748;52.240;6.002;2022-12-01T13:59:38;8.20;99.90
25951;DHT22;13748;52.240;6.002;2022-12-01T14:02:19;8.20;99.90
25951;DHT22;13748;52.240;6.002;2022-12-01T14:04:46;8.10;99.90
25951;DHT22;13748;52.240;6.002;2022-12-01T14:07:33;8.10;99.90
25951;DHT22;13748;52.240;6.002;2022-12-01T14:10:22;8.10;99.90
25951;DHT22;13748;52.240;6.002;2022-12-01T14:12:51;8.10;99.90
25951;DHT22;13748;52.240;6.002;2022-12-01T14:15:41;8.10;99.90
25951;DHT22;13748;52.240;6.002;2022-12-01T14:18:29;8.10;99.90
25951;DHT22;13748;52.240;6.002;2022-12-01T14:20:59;8.10;99.90
25951;DHT22;13748;52.240;6.002;2022-12-01T14:23:34;8.10;99.90
25951;DHT22;13748;52.240;6.002;2022-12-01T14:26:11;8.10;99.90
25951;DHT22;13748;52.240;6.002;2022-12-01T14:31:22;8.00;99.90
25951;DHT22;13748;52.240;6.002;2022-12-01T14:33:53;8.00;99.90
25951;DHT22;13748;52.240;6.002;2022-12-01T14:41:30;7.90;99.90
25951;DHT22;13748;52.240;6.002;2022-12-01T14:44:21;7.90;99.90
25951;DHT22;13748;52.240;6.002;2022-12-01T14:50:00;7.80;99.90
25951;DHT22;13748;52.240;6.002;2022-12-01T14:55:00;7.70;99.90
25951;DHT22;13748;52.240;6.002;2022-12-01T14:57:33;7.70;99.90
25951;DHT22;13748;52.240;6.002;2022-12-01T15:00:22;7.70;99.90
25951;DHT22;13748;52.240;6.002;2022-12-01T15:02:58;7.70;99.90
25951;DHT22;13748;52.240;6.002;2022-12-01T15:05:30;7.70;99.90
25951;DHT22;13748;52.240;6.002;2022-12-01T15:08:00;7.70;99.90
25951;DHT22;13748;52.240;6.002;2022-12-01T15:11:00;7.60;99.90
25951;DHT22;13748;52.240;6.002;2022-12-01T15:16:13;7.60;99.90
25951;DHT22;13748;52.240;6.002;2022-12-01T15:18:40;7.60;99.90
25951;DHT22;13748;52.240;6.002;2022-12-01T15:21:36;7.60;99.90
25951;DHT22;13748;52.240;6.002;2022-12-01T15:24:15;7.60;99.90
25951;DHT22;13748;52.240;6.002;2022-12-01T15:26:47;7.60;99.90
25951;DHT22;13748;52.240;6.002;2022-12-01T15:31:53;7.50;99.90
25951;DHT22;13748;52.240;6.002;2022-12-01T15:34:34;7.60;99.90
25951;DHT22;13748;52.240;6.002;2022-12-01T15:37:08;7.50;99.90
25951;DHT22;13748;52.240;6.002;2022-12-01T15:39:38;7.50;99.90
25951;DHT22;13748;52.240;6.002;2022-12-01T15:42:06;7.50;99.90
25951;DHT22;13748;52.240;6.002;2022-12-01T15:44:56;7.50;99.90
25951;DHT22;13748;52.240;6.002;2022-12-01T15:47:34;7.50;99.90
25951;DHT22;13748;52.240;6.002;2022-12-01T15:50:03;7.50;99.90
25951;DHT22;13748;52.240;6.002;2022-12-01T15:52:31;7.50;99.90
25951;DHT22;13748;52.240;6.002;2022-12-01T15:55:02;7.50;99.90
25951;DHT22;13748;52.240;6.002;2022-12-01T15:57:29;7.50;99.90
25951;DHT22;13748;52.240;6.002;2022-12-01T15:59:56;7.50;99.90
25951;DHT22;13748;52.240;6.002;2022-12-01T16:02:31;7.50;99.90
25951;DHT22;13748;52.240;6.002;2022-12-01T16:05:13;7.50;99.90
25951;DHT22;13748;52.240;6.002;2022-12-01T16:07:41;7.50;99.90
25951;DHT22;13748;52.240;6.002;2022-12-01T16:10:31;7.40;99.90
25951;DHT22;13748;52.240;6.002;2022-12-01T16:16:29;7.50;99.90
25951;DHT22;13748;52.240;6.002;2022-12-01T16:19:39;7.40;99.90
25951;DHT22;13748;52.240;6.002;2022-12-01T16:21:50;7.40;99.90
25951;DHT22;13748;52.240;6.002;2022-12-01T16:27:05;7.40;99.90
25951;DHT22;13748;52.240;6.002;2022-12-01T16:29:47;7.40;99.90
25951;DHT22;13748;52.240;6.002;2022-12-01T16:34:49;7.40;99.90
25951;DHT22;13748;52.240;6.002;2022-12-01T16:37:16;7.40;99.90
25951;DHT22;13748;52.240;6.002;2022-12-01T16:39:45;7.40;99.90
25951;DHT22;13748;52.240;6.002;2022-12-01T16:42:17;7.40;99.90
25951;DHT22;13748;52.240;6.002;2022-12-01T16:44:49;7.40;99.90
25951;DHT22;13748;52.240;6.002;2022-12-01T16:47:24;7.30;99.90
25951;DHT22;13748;52.240;6.002;2022-12-01T16:49:51;7.30;99.90
25951;DHT22;13748;52.240;6.002;2022-12-01T16:52:19;7.30;99.90
25951;DHT22;13748;52.240;6.002;2022-12-01T16:55:22;7.30;99.90
25951;DHT22;13748;52.240;6.002;2022-12-01T16:57:49;7.30;99.90
25951;DHT22;13748;52.240;6.002;2022-12-01T17:00:16;7.30;99.90
25951;DHT22;13748;52.240;6.002;2022-12-01T17:02:43;7.30;99.90
25951;DHT22;13748;52.240;6.002;2022-12-01T17:05:10;7.30;99.90
25951;DHT22;13748;52.240;6.002;2022-12-01T17:07:37;7.20;99.90
25951;DHT22;13748;52.240;6.002;2022-12-01T17:10:04;7.30;99.90
25951;DHT22;13748;52.240;6.002;2022-12-01T17:12:31;7.30;99.90
25951;DHT22;13748;52.240;6.002;2022-12-01T17:14:58;7.30;99.90
25951;DHT22;13748;52.240;6.002;2022-12-01T17:17:25;7.30;99.90
25951;DHT22;13748;52.240;6.002;2022-12-01T17:19:51;7.20;99.90
25951;DHT22;13748;52.240;6.002;2022-12-01T17:22:19;7.20;99.90
25951;DHT22;13748;52.240;6.002;2022-12-01T17:24:45;7.20;99.90
25951;DHT22;13748;52.240;6.002;2022-12-01T17:27:12;7.20;99.90
25951;DHT22;13748;52.240;6.002;2022-12-01T17:29:39;7.20;99.90
25951;DHT22;13748;52.240;6.002;2022-12-01T17:32:12;7.20;99.90
25951;DHT22;13748;52.240;6.002;2022-12-01T17:34:39;7.20;99.90
25951;DHT22;13748;52.240;6.002;2022-12-01T17:37:09;7.20;99.90
25951;DHT22;13748;52.240;6.002;2022-12-01T17:39:36;7.20;99.90
25951;DHT22;13748;52.240;6.002;2022-12-01T17:42:02;7.20;99.90
25951;DHT22;13748;52.240;6.002;2022-12-01T17:44:30;7.20;99.90
25951;DHT22;13748;52.240;6.002;2022-12-01T17:46:56;7.20;99.90
25951;DHT22;13748;52.240;6.002;2022-12-01T17:49:23;7.20;99.90
25951;DHT22;13748;52.240;6.002;2022-12-01T17:51:50;7.20;99.90
25951;DHT22;13748;52.240;6.002;2022-12-01T17:54:17;7.20;99.90
25951;DHT22;13748;52.240;6.002;2022-12-01T17:56:44;7.20;99.90
25951;DHT22;13748;52.240;6.002;2022-12-01T17:59:11;7.20;99.90
25951;DHT22;13748;52.240;6.002;2022-12-01T18:01:38;7.20;99.90
25951;DHT22;13748;52.240;6.002;2022-12-01T18:04:06;7.20;99.90
25951;DHT22;13748;52.240;6.002;2022-12-01T18:06:33;7.20;99.90
25951;DHT22;13748;52.240;6.002;2022-12-01T18:09:00;7.20;99.90
25951;DHT22;13748;52.240;6.002;2022-12-01T18:11:27;7.20;99.90
25951;DHT22;13748;52.240;6.002;2022-12-01T18:13:54;7.20;99.90
25951;DHT22;13748;52.240;6.002;2022-12-01T18:16:26;7.20;99.90
25951;DHT22;13748;52.240;6.002;2022-12-01T18:18:54;7.20;99.90
25951;DHT22;13748;52.240;6.002;2022-12-01T18:21:22;7.20;99.90
25951;DHT22;13748;52.240;6.002;2022-12-01T18:23:52;7.20;99.90